Impacts METAR Board
IDs:

KFLL - Ft Lauderdale-Hollyw, FL, US

Updated at: 0500 UTC 17 Aug 2018
Potential Impact None Slight Moderate High
Time 16/17Z 16/18Z 16/19Z 16/20Z 16/21Z 16/22Z 16/23Z 17/00Z 17/01Z 17/02Z 17/03Z 17/04Z 17/05Z
Temp89 89 89 88 88 87 86 85 85 86 85 85 84
Dewpt74 78 79 77 78 77 78 77 77 75 76 76 79
Altim30.15 30.15 30.14 30.13 30.12 30.12 30.12 30.13 30.15 30.19 30.18 30.19 30.19
VIS10 10 10 10 10 10 10 10 10 10 10 10 10
CIG-- -- 30 -- 250 -- -- -- -- -- -- -- --
CoverFEWFEWBKNSCTBKNSCTSCTSCTSCTSCTFEWFEWFEW
FltCatVFRVFRMVFRVFRVFRVFRVFRVFRVFRVFRVFRVFRVFR
WX--------------------------
WDir130100100150120130100110100100110120100
WSpd14 13 11 11 11 12 11 10 11 10 7 10 10
WGst-- -- 19 -- -- -- -- -- -- -- -- -- --
Raw hourly METARs
KFLL 161653Z 13014KT 10SM FEW030 32/23 A3015 RMK AO2 SLP209 T03170233
KFLL 161753Z 10013KT 10SM FEW030 32/26 A3015 RMK AO2 SLP207 T03170256 10322 20289 56002
KFLL 161853Z 10011G19KT 10SM BKN030 32/26 A3014 RMK AO2 SLP206 T03170261
KFLL 161953Z 15011KT 10SM SCT032 SCT100 SCT250 31/25 A3013 RMK AO2 SLP202 TCU DSNT NE T03110250
KFLL 162053Z 12011KT 10SM SCT030 SCT100 BKN250 31/26 A3012 RMK AO2 SLP199 T03110256 58009
KFLL 162153Z 13012KT 10SM SCT027 SCT250 31/25 A3012 RMK AO2 SLP200 T03060250
KFLL 162253Z 10011KT 10SM SCT026 30/26 A3012 RMK AO2 SLP200 T03000256
KFLL 162353Z 11010KT 10SM SCT026 SCT250 29/25 A3013 RMK AO2 SLP203 T02940250 10322 20294 53004
KFLL 170053Z COR 10011KT 10SM SCT032 SCT100 29/25 A3015 RMK AO2 SLP211 TCU DSNT SW T02940250
KFLL 170153Z 10010KT 10SM FEW030 SCT150 SCT200 30/24 A3019 RMK AO2 TSB12E36 SLP222 T03000239
KFLL 170253Z 11007KT 10SM FEW030 29/24 A3018 RMK AO2 SLP221 T02940244 50018
KFLL 170353Z 12010KT 10SM FEW030 29/24 A3019 RMK AO2 SLP221 T02940244
KFLL 170453Z 10010KT 10SM FEW023 29/26 A3019 RMK AO2 SLP221 T02890261 403220278



Page loaded:  05:25 UTC  |   10:25 PM Pacific  |   11:25 PM Mountain  |   12:25 AM Central  |   01:25 AM Eastern

 

ADVISORIES

FORECASTS

FORECASTS

OBSERVATIONS

USER TOOLS

ABOUT US